sensor_id;sensor_type;location;lat;lon;timestamp;P1;durP1;ratioP1;P2;durP2;ratioP2
2213;SDS011;1113;42.018;23.986;2023-03-25T00:01:21;34.60;;;25.63;;
2213;SDS011;1113;42.018;23.986;2023-03-25T00:03:49;29.67;;;23.67;;
2213;SDS011;1113;42.018;23.986;2023-03-25T00:06:17;32.22;;;24.10;;
2213;SDS011;1113;42.018;23.986;2023-03-25T00:08:44;39.35;;;25.75;;
2213;SDS011;1113;42.018;23.986;2023-03-25T00:11:12;37.72;;;26.50;;
2213;SDS011;1113;42.018;23.986;2023-03-25T00:13:38;33.13;;;22.02;;
2213;SDS011;1113;42.018;23.986;2023-03-25T00:16:06;36.05;;;23.98;;
2213;SDS011;1113;42.018;23.986;2023-03-25T00:18:34;36.97;;;25.13;;
2213;SDS011;1113;42.018;23.986;2023-03-25T00:21:02;36.00;;;25.20;;
2213;SDS011;1113;42.018;23.986;2023-03-25T00:23:29;44.88;;;27.77;;
2213;SDS011;1113;42.018;23.986;2023-03-25T00:25:56;35.75;;;24.30;;
2213;SDS011;1113;42.018;23.986;2023-03-25T00:28:25;45.40;;;26.08;;
2213;SDS011;1113;42.018;23.986;2023-03-25T00:30:57;42.13;;;26.27;;
2213;SDS011;1113;42.018;23.986;2023-03-25T00:33:23;36.00;;;24.85;;
2213;SDS011;1113;42.018;23.986;2023-03-25T00:35:50;34.28;;;25.13;;
2213;SDS011;1113;42.018;23.986;2023-03-25T00:38:18;33.97;;;23.30;;
2213;SDS011;1113;42.018;23.986;2023-03-25T00:40:45;33.35;;;22.92;;
2213;SDS011;1113;42.018;23.986;2023-03-25T00:43:12;35.15;;;24.13;;
2213;SDS011;1113;42.018;23.986;2023-03-25T00:45:41;26.95;;;19.20;;
2213;SDS011;1113;42.018;23.986;2023-03-25T00:48:07;30.30;;;21.55;;
2213;SDS011;1113;42.018;23.986;2023-03-25T00:50:34;29.60;;;21.23;;
2213;SDS011;1113;42.018;23.986;2023-03-25T00:53:00;29.02;;;19.75;;
2213;SDS011;1113;42.018;23.986;2023-03-25T00:55:27;28.00;;;18.35;;
2213;SDS011;1113;42.018;23.986;2023-03-25T00:57:54;20.85;;;16.10;;
2213;SDS011;1113;42.018;23.986;2023-03-25T01:00:20;22.55;;;17.67;;
2213;SDS011;1113;42.018;23.986;2023-03-25T01:02:49;25.75;;;17.85;;
2213;SDS011;1113;42.018;23.986;2023-03-25T01:05:17;24.80;;;17.10;;
2213;SDS011;1113;42.018;23.986;2023-03-25T01:07:45;24.80;;;18.65;;
2213;SDS011;1113;42.018;23.986;2023-03-25T01:10:13;26.98;;;18.73;;
2213;SDS011;1113;42.018;23.986;2023-03-25T01:12:40;28.48;;;18.63;;
2213;SDS011;1113;42.018;23.986;2023-03-25T01:15:08;30.23;;;18.95;;
2213;SDS011;1113;42.018;23.986;2023-03-25T01:17:35;25.60;;;18.85;;
2213;SDS011;1113;42.018;23.986;2023-03-25T01:20:03;23.65;;;18.08;;
2213;SDS011;1113;42.018;23.986;2023-03-25T01:22:33;29.50;;;20.33;;
2213;SDS011;1113;42.018;23.986;2023-03-25T01:24:59;32.80;;;23.05;;
2213;SDS011;1113;42.018;23.986;2023-03-25T01:27:26;33.13;;;22.55;;
2213;SDS011;1113;42.018;23.986;2023-03-25T01:29:54;27.23;;;19.25;;
2213;SDS011;1113;42.018;23.986;2023-03-25T01:32:20;26.17;;;19.77;;
2213;SDS011;1113;42.018;23.986;2023-03-25T01:34:47;33.63;;;23.55;;
2213;SDS011;1113;42.018;23.986;2023-03-25T01:37:15;37.80;;;26.52;;
2213;SDS011;1113;42.018;23.986;2023-03-25T01:39:42;33.67;;;22.95;;
2213;SDS011;1113;42.018;23.986;2023-03-25T01:42:09;33.83;;;24.25;;
2213;SDS011;1113;42.018;23.986;2023-03-25T01:47:21;31.85;;;21.23;;
2213;SDS011;1113;42.018;23.986;2023-03-25T01:49:50;37.08;;;23.80;;
2213;SDS011;1113;42.018;23.986;2023-03-25T01:52:21;34.60;;;25.52;;
2213;SDS011;1113;42.018;23.986;2023-03-25T01:54:49;29.90;;;21.95;;
2213;SDS011;1113;42.018;23.986;2023-03-25T01:57:16;30.60;;;23.38;;
2213;SDS011;1113;42.018;23.986;2023-03-25T01:59:44;33.50;;;23.20;;
2213;SDS011;1113;42.018;23.986;2023-03-25T02:02:11;33.15;;;21.98;;
2213;SDS011;1113;42.018;23.986;2023-03-25T02:04:42;28.35;;;20.08;;
2213;SDS011;1113;42.018;23.986;2023-03-25T02:07:10;36.75;;;28.02;;
2213;SDS011;1113;42.018;23.986;2023-03-25T02:09:42;28.63;;;22.17;;
2213;SDS011;1113;42.018;23.986;2023-03-25T02:12:08;32.38;;;22.08;;
2213;SDS011;1113;42.018;23.986;2023-03-25T02:14:35;32.40;;;22.00;;
2213;SDS011;1113;42.018;23.986;2023-03-25T02:17:06;29.42;;;22.10;;
2213;SDS011;1113;42.018;23.986;2023-03-25T02:19:46;27.95;;;19.88;;
2213;SDS011;1113;42.018;23.986;2023-03-25T02:22:24;26.77;;;19.80;;
2213;SDS011;1113;42.018;23.986;2023-03-25T02:27:53;28.05;;;20.48;;
2213;SDS011;1113;42.018;23.986;2023-03-25T02:33:22;32.42;;;23.02;;
2213;SDS011;1113;42.018;23.986;2023-03-25T02:36:00;24.63;;;18.52;;
2213;SDS011;1113;42.018;23.986;2023-03-25T02:38:32;30.15;;;22.73;;
2213;SDS011;1113;42.018;23.986;2023-03-25T02:41:03;28.88;;;22.63;;
2213;SDS011;1113;42.018;23.986;2023-03-25T02:43:30;33.90;;;23.27;;
2213;SDS011;1113;42.018;23.986;2023-03-25T02:45:58;29.50;;;21.40;;
2213;SDS011;1113;42.018;23.986;2023-03-25T02:48:28;27.92;;;21.15;;
2213;SDS011;1113;42.018;23.986;2023-03-25T02:50:57;32.72;;;21.63;;
2213;SDS011;1113;42.018;23.986;2023-03-25T02:53:26;29.08;;;21.85;;
2213;SDS011;1113;42.018;23.986;2023-03-25T02:55:56;28.05;;;22.10;;
2213;SDS011;1113;42.018;23.986;2023-03-25T02:58:24;29.38;;;21.10;;
2213;SDS011;1113;42.018;23.986;2023-03-25T03:00:54;40.15;;;28.30;;
2213;SDS011;1113;42.018;23.986;2023-03-25T03:03:23;37.33;;;27.50;;
2213;SDS011;1113;42.018;23.986;2023-03-25T03:05:50;37.83;;;26.40;;
2213;SDS011;1113;42.018;23.986;2023-03-25T03:08:21;43.88;;;26.67;;
2213;SDS011;1113;42.018;23.986;2023-03-25T03:10:50;43.72;;;29.00;;
2213;SDS011;1113;42.018;23.986;2023-03-25T03:13:23;39.65;;;27.35;;
2213;SDS011;1113;42.018;23.986;2023-03-25T03:15:53;37.25;;;27.75;;
2213;SDS011;1113;42.018;23.986;2023-03-25T03:18:26;33.15;;;23.15;;
2213;SDS011;1113;42.018;23.986;2023-03-25T03:20:59;30.95;;;22.60;;
2213;SDS011;1113;42.018;23.986;2023-03-25T03:23:33;34.78;;;23.45;;
2213;SDS011;1113;42.018;23.986;2023-03-25T03:26:02;33.60;;;24.85;;
2213;SDS011;1113;42.018;23.986;2023-03-25T03:28:35;39.35;;;28.58;;
2213;SDS011;1113;42.018;23.986;2023-03-25T03:31:04;35.75;;;27.55;;
2213;SDS011;1113;42.018;23.986;2023-03-25T03:33:33;33.17;;;25.08;;
2213;SDS011;1113;42.018;23.986;2023-03-25T03:36:04;37.17;;;25.98;;
2213;SDS011;1113;42.018;23.986;2023-03-25T03:38:31;34.20;;;23.60;;
2213;SDS011;1113;42.018;23.986;2023-03-25T03:41:00;33.95;;;24.92;;
2213;SDS011;1113;42.018;23.986;2023-03-25T03:43:29;30.42;;;20.08;;
2213;SDS011;1113;42.018;23.986;2023-03-25T03:45:59;32.28;;;23.75;;
2213;SDS011;1113;42.018;23.986;2023-03-25T03:48:28;31.50;;;22.73;;
2213;SDS011;1113;42.018;23.986;2023-03-25T03:50:57;33.28;;;22.40;;
2213;SDS011;1113;42.018;23.986;2023-03-25T03:53:26;32.42;;;22.55;;
2213;SDS011;1113;42.018;23.986;2023-03-25T03:55:55;29.17;;;23.15;;
2213;SDS011;1113;42.018;23.986;2023-03-25T03:58:27;30.83;;;22.10;;
2213;SDS011;1113;42.018;23.986;2023-03-25T04:00:56;24.83;;;18.33;;
2213;SDS011;1113;42.018;23.986;2023-03-25T04:03:27;26.05;;;19.48;;
2213;SDS011;1113;42.018;23.986;2023-03-25T04:05:59;30.25;;;22.00;;
2213;SDS011;1113;42.018;23.986;2023-03-25T04:08:31;24.23;;;19.23;;
2213;SDS011;1113;42.018;23.986;2023-03-25T04:11:00;24.00;;;18.25;;
2213;SDS011;1113;42.018;23.986;2023-03-25T04:13:29;25.40;;;18.30;;
2213;SDS011;1113;42.018;23.986;2023-03-25T04:15:56;26.98;;;19.90;;
2213;SDS011;1113;42.018;23.986;2023-03-25T04:18:25;28.00;;;21.80;;
2213;SDS011;1113;42.018;23.986;2023-03-25T04:20:52;29.13;;;21.55;;
2213;SDS011;1113;42.018;23.986;2023-03-25T04:23:19;30.75;;;20.50;;
2213;SDS011;1113;42.018;23.986;2023-03-25T04:25:46;30.33;;;20.58;;
2213;SDS011;1113;42.018;23.986;2023-03-25T04:28:13;31.75;;;22.60;;
2213;SDS011;1113;42.018;23.986;2023-03-25T04:30:41;39.72;;;28.00;;
2213;SDS011;1113;42.018;23.986;2023-03-25T04:33:09;34.30;;;23.60;;
2213;SDS011;1113;42.018;23.986;2023-03-25T04:35:37;41.33;;;31.40;;
2213;SDS011;1113;42.018;23.986;2023-03-25T04:38:05;45.53;;;32.30;;
2213;SDS011;1113;42.018;23.986;2023-03-25T04:40:32;38.42;;;29.73;;
2213;SDS011;1113;42.018;23.986;2023-03-25T04:42:59;41.03;;;30.05;;
2213;SDS011;1113;42.018;23.986;2023-03-25T04:45:25;46.58;;;35.60;;
2213;SDS011;1113;42.018;23.986;2023-03-25T04:47:52;82.47;;;47.15;;
2213;SDS011;1113;42.018;23.986;2023-03-25T04:50:20;68.28;;;41.75;;
2213;SDS011;1113;42.018;23.986;2023-03-25T04:52:48;68.95;;;43.80;;
2213;SDS011;1113;42.018;23.986;2023-03-25T04:55:15;59.05;;;39.78;;
2213;SDS011;1113;42.018;23.986;2023-03-25T04:57:43;56.53;;;37.00;;
2213;SDS011;1113;42.018;23.986;2023-03-25T05:00:11;51.40;;;35.65;;
2213;SDS011;1113;42.018;23.986;2023-03-25T05:02:41;63.72;;;41.00;;
2213;SDS011;1113;42.018;23.986;2023-03-25T05:05:09;78.03;;;44.88;;
2213;SDS011;1113;42.018;23.986;2023-03-25T05:07:42;61.70;;;40.75;;
2213;SDS011;1113;42.018;23.986;2023-03-25T05:10:11;61.05;;;40.28;;
2213;SDS011;1113;42.018;23.986;2023-03-25T05:12:38;71.05;;;45.38;;
2213;SDS011;1113;42.018;23.986;2023-03-25T05:15:05;70.10;;;45.92;;
2213;SDS011;1113;42.018;23.986;2023-03-25T05:17:32;64.05;;;43.83;;
2213;SDS011;1113;42.018;23.986;2023-03-25T05:19:58;76.50;;;52.88;;
2213;SDS011;1113;42.018;23.986;2023-03-25T05:22:25;77.68;;;55.10;;
2213;SDS011;1113;42.018;23.986;2023-03-25T05:24:51;70.35;;;49.92;;
2213;SDS011;1113;42.018;23.986;2023-03-25T05:27:19;59.83;;;41.67;;
2213;SDS011;1113;42.018;23.986;2023-03-25T05:29:48;59.78;;;41.28;;
2213;SDS011;1113;42.018;23.986;2023-03-25T05:32:18;77.70;;;48.38;;
2213;SDS011;1113;42.018;23.986;2023-03-25T05:34:45;66.50;;;41.22;;
2213;SDS011;1113;42.018;23.986;2023-03-25T05:37:18;88.32;;;52.08;;
2213;SDS011;1113;42.018;23.986;2023-03-25T05:39:44;64.38;;;43.25;;
2213;SDS011;1113;42.018;23.986;2023-03-25T05:42:11;46.47;;;31.63;;
2213;SDS011;1113;42.018;23.986;2023-03-25T05:44:39;44.97;;;32.25;;
2213;SDS011;1113;42.018;23.986;2023-03-25T05:47:11;36.83;;;26.75;;
2213;SDS011;1113;42.018;23.986;2023-03-25T05:49:37;38.42;;;25.40;;
2213;SDS011;1113;42.018;23.986;2023-03-25T05:52:06;51.15;;;34.80;;
2213;SDS011;1113;42.018;23.986;2023-03-25T05:54:33;38.40;;;28.42;;
2213;SDS011;1113;42.018;23.986;2023-03-25T05:57:05;45.17;;;33.72;;
2213;SDS011;1113;42.018;23.986;2023-03-25T05:59:32;41.80;;;30.95;;
2213;SDS011;1113;42.018;23.986;2023-03-25T06:02:00;42.55;;;31.00;;
2213;SDS011;1113;42.018;23.986;2023-03-25T06:04:26;39.92;;;28.92;;
2213;SDS011;1113;42.018;23.986;2023-03-25T06:06:53;36.80;;;25.75;;
2213;SDS011;1113;42.018;23.986;2023-03-25T06:09:19;30.63;;;22.60;;
2213;SDS011;1113;42.018;23.986;2023-03-25T06:11:46;26.92;;;19.63;;
2213;SDS011;1113;42.018;23.986;2023-03-25T06:14:17;28.40;;;21.10;;
2213;SDS011;1113;42.018;23.986;2023-03-25T06:16:44;27.67;;;18.75;;
2213;SDS011;1113;42.018;23.986;2023-03-25T06:19:12;25.80;;;20.85;;
2213;SDS011;1113;42.018;23.986;2023-03-25T06:21:42;29.05;;;21.15;;
2213;SDS011;1113;42.018;23.986;2023-03-25T06:24:13;31.33;;;23.77;;
2213;SDS011;1113;42.018;23.986;2023-03-25T06:26:40;29.05;;;23.05;;
2213;SDS011;1113;42.018;23.986;2023-03-25T06:29:06;31.90;;;23.10;;
2213;SDS011;1113;42.018;23.986;2023-03-25T06:31:33;34.40;;;24.40;;
2213;SDS011;1113;42.018;23.986;2023-03-25T06:34:00;36.45;;;25.67;;
2213;SDS011;1113;42.018;23.986;2023-03-25T06:36:28;36.00;;;24.73;;
2213;SDS011;1113;42.018;23.986;2023-03-25T06:38:55;35.78;;;27.27;;
2213;SDS011;1113;42.018;23.986;2023-03-25T06:41:22;35.70;;;27.13;;
2213;SDS011;1113;42.018;23.986;2023-03-25T06:43:50;38.75;;;29.70;;
2213;SDS011;1113;42.018;23.986;2023-03-25T06:46:30;32.33;;;27.17;;
2213;SDS011;1113;42.018;23.986;2023-03-25T06:48:57;37.35;;;27.75;;
2213;SDS011;1113;42.018;23.986;2023-03-25T06:51:23;38.78;;;29.20;;
2213;SDS011;1113;42.018;23.986;2023-03-25T06:53:51;38.72;;;27.48;;
2213;SDS011;1113;42.018;23.986;2023-03-25T06:56:18;38.80;;;30.35;;
2213;SDS011;1113;42.018;23.986;2023-03-25T06:58:44;37.27;;;30.03;;
2213;SDS011;1113;42.018;23.986;2023-03-25T07:01:11;39.75;;;30.17;;
2213;SDS011;1113;42.018;23.986;2023-03-25T07:03:37;38.60;;;27.00;;
2213;SDS011;1113;42.018;23.986;2023-03-25T07:06:05;31.60;;;24.88;;
2213;SDS011;1113;42.018;23.986;2023-03-25T07:08:32;29.52;;;23.80;;
2213;SDS011;1113;42.018;23.986;2023-03-25T07:11:06;30.90;;;23.93;;
2213;SDS011;1113;42.018;23.986;2023-03-25T07:13:33;32.30;;;25.63;;
2213;SDS011;1113;42.018;23.986;2023-03-25T07:16:00;30.30;;;24.07;;
2213;SDS011;1113;42.018;23.986;2023-03-25T07:18:27;36.07;;;26.47;;
2213;SDS011;1113;42.018;23.986;2023-03-25T07:20:53;33.27;;;24.43;;
2213;SDS011;1113;42.018;23.986;2023-03-25T07:23:20;32.93;;;26.43;;
2213;SDS011;1113;42.018;23.986;2023-03-25T07:25:46;29.50;;;25.23;;
2213;SDS011;1113;42.018;23.986;2023-03-25T07:28:14;29.57;;;24.83;;
2213;SDS011;1113;42.018;23.986;2023-03-25T07:30:41;32.80;;;23.30;;
2213;SDS011;1113;42.018;23.986;2023-03-25T07:33:07;31.63;;;22.30;;
2213;SDS011;1113;42.018;23.986;2023-03-25T07:35:34;33.17;;;22.87;;
2213;SDS011;1113;42.018;23.986;2023-03-25T07:38:00;27.03;;;21.00;;
2213;SDS011;1113;42.018;23.986;2023-03-25T07:40:29;23.50;;;19.10;;
2213;SDS011;1113;42.018;23.986;2023-03-25T07:42:56;25.00;;;18.73;;
2213;SDS011;1113;42.018;23.986;2023-03-25T07:45:24;19.13;;;16.57;;
2213;SDS011;1113;42.018;23.986;2023-03-25T07:47:51;17.50;;;13.93;;
2213;SDS011;1113;42.018;23.986;2023-03-25T07:50:18;16.93;;;14.30;;
2213;SDS011;1113;42.018;23.986;2023-03-25T07:52:45;21.03;;;13.53;;
2213;SDS011;1113;42.018;23.986;2023-03-25T07:55:11;13.10;;;10.33;;
2213;SDS011;1113;42.018;23.986;2023-03-25T07:57:38;30.03;;;9.67;;
2213;SDS011;1113;42.018;23.986;2023-03-25T08:00:06;11.87;;;9.03;;
2213;SDS011;1113;42.018;23.986;2023-03-25T08:02:35;15.33;;;10.93;;
2213;SDS011;1113;42.018;23.986;2023-03-25T08:05:02;10.90;;;9.00;;
2213;SDS011;1113;42.018;23.986;2023-03-25T08:07:29;13.93;;;8.07;;
2213;SDS011;1113;42.018;23.986;2023-03-25T08:09:56;10.80;;;7.83;;
2213;SDS011;1113;42.018;23.986;2023-03-25T08:12:22;12.77;;;9.60;;
2213;SDS011;1113;42.018;23.986;2023-03-25T08:14:49;11.43;;;8.73;;
2213;SDS011;1113;42.018;23.986;2023-03-25T08:17:15;11.47;;;8.27;;
2213;SDS011;1113;42.018;23.986;2023-03-25T08:19:43;11.53;;;8.00;;
2213;SDS011;1113;42.018;23.986;2023-03-25T08:22:10;11.70;;;8.70;;
2213;SDS011;1113;42.018;23.986;2023-03-25T08:24:36;16.23;;;9.17;;
2213;SDS011;1113;42.018;23.986;2023-03-25T08:27:03;14.53;;;9.57;;
2213;SDS011;1113;42.018;23.986;2023-03-25T08:29:30;18.40;;;10.53;;
2213;SDS011;1113;42.018;23.986;2023-03-25T08:31:58;9.13;;;8.13;;
2213;SDS011;1113;42.018;23.986;2023-03-25T08:34:25;10.57;;;8.20;;
2213;SDS011;1113;42.018;23.986;2023-03-25T08:36:53;16.90;;;9.77;;
2213;SDS011;1113;42.018;23.986;2023-03-25T08:39:19;14.57;;;10.60;;
2213;SDS011;1113;42.018;23.986;2023-03-25T08:41:46;11.10;;;9.00;;
2213;SDS011;1113;42.018;23.986;2023-03-25T08:44:12;7.83;;;6.43;;
2213;SDS011;1113;42.018;23.986;2023-03-25T08:46:39;8.37;;;7.20;;
2213;SDS011;1113;42.018;23.986;2023-03-25T08:49:05;10.80;;;7.40;;
2213;SDS011;1113;42.018;23.986;2023-03-25T08:51:32;10.00;;;8.30;;
2213;SDS011;1113;42.018;23.986;2023-03-25T08:54:00;11.00;;;7.30;;
2213;SDS011;1113;42.018;23.986;2023-03-25T08:56:27;12.70;;;9.80;;
2213;SDS011;1113;42.018;23.986;2023-03-25T08:58:53;14.37;;;8.90;;
2213;SDS011;1113;42.018;23.986;2023-03-25T09:01:20;11.00;;;8.50;;
2213;SDS011;1113;42.018;23.986;2023-03-25T09:03:48;12.00;;;7.50;;
2213;SDS011;1113;42.018;23.986;2023-03-25T09:06:15;10.77;;;8.60;;
2213;SDS011;1113;42.018;23.986;2023-03-25T09:08:41;10.23;;;6.80;;
2213;SDS011;1113;42.018;23.986;2023-03-25T09:11:09;8.30;;;7.37;;
2213;SDS011;1113;42.018;23.986;2023-03-25T09:13:36;9.30;;;7.77;;
2213;SDS011;1113;42.018;23.986;2023-03-25T09:16:03;11.20;;;7.30;;
2213;SDS011;1113;42.018;23.986;2023-03-25T09:18:30;7.00;;;5.80;;
2213;SDS011;1113;42.018;23.986;2023-03-25T09:20:57;9.40;;;6.20;;
2213;SDS011;1113;42.018;23.986;2023-03-25T09:23:23;9.30;;;6.80;;
2213;SDS011;1113;42.018;23.986;2023-03-25T09:25:50;8.13;;;7.23;;
2213;SDS011;1113;42.018;23.986;2023-03-25T09:28:18;6.30;;;5.03;;
2213;SDS011;1113;42.018;23.986;2023-03-25T09:30:44;10.17;;;7.07;;
2213;SDS011;1113;42.018;23.986;2023-03-25T09:33:11;6.77;;;5.67;;
2213;SDS011;1113;42.018;23.986;2023-03-25T09:35:38;5.80;;;5.20;;
2213;SDS011;1113;42.018;23.986;2023-03-25T09:38:05;11.60;;;7.33;;
2213;SDS011;1113;42.018;23.986;2023-03-25T09:40:32;5.27;;;4.77;;
2213;SDS011;1113;42.018;23.986;2023-03-25T09:43:02;5.73;;;4.80;;
2213;SDS011;1113;42.018;23.986;2023-03-25T09:45:31;7.37;;;4.30;;
2213;SDS011;1113;42.018;23.986;2023-03-25T09:48:00;5.00;;;4.50;;
2213;SDS011;1113;42.018;23.986;2023-03-25T09:50:28;6.00;;;4.67;;
2213;SDS011;1113;42.018;23.986;2023-03-25T09:52:56;5.20;;;4.60;;
2213;SDS011;1113;42.018;23.986;2023-03-25T09:55:24;7.27;;;4.53;;
2213;SDS011;1113;42.018;23.986;2023-03-25T09:57:53;6.47;;;4.67;;
2213;SDS011;1113;42.018;23.986;2023-03-25T10:00:22;4.37;;;3.97;;
2213;SDS011;1113;42.018;23.986;2023-03-25T10:02:52;5.83;;;4.07;;
2213;SDS011;1113;42.018;23.986;2023-03-25T10:05:24;5.00;;;3.47;;
2213;SDS011;1113;42.018;23.986;2023-03-25T10:07:58;4.00;;;3.57;;
2213;SDS011;1113;42.018;23.986;2023-03-25T10:10:27;5.60;;;4.10;;
2213;SDS011;1113;42.018;23.986;2023-03-25T10:12:57;7.27;;;4.20;;
2213;SDS011;1113;42.018;23.986;2023-03-25T10:15:26;4.73;;;3.60;;
2213;SDS011;1113;42.018;23.986;2023-03-25T10:18:02;9.80;;;3.57;;
2213;SDS011;1113;42.018;23.986;2023-03-25T10:20:35;6.03;;;3.70;;
2213;SDS011;1113;42.018;23.986;2023-03-25T10:23:09;4.60;;;3.60;;
2213;SDS011;1113;42.018;23.986;2023-03-25T10:25:37;5.20;;;4.13;;
2213;SDS011;1113;42.018;23.986;2023-03-25T10:28:06;5.33;;;3.90;;
2213;SDS011;1113;42.018;23.986;2023-03-25T10:30:37;4.63;;;3.27;;
2213;SDS011;1113;42.018;23.986;2023-03-25T10:33:11;7.30;;;3.67;;
2213;SDS011;1113;42.018;23.986;2023-03-25T10:35:41;4.20;;;3.33;;
2213;SDS011;1113;42.018;23.986;2023-03-25T10:38:11;4.30;;;3.30;;
2213;SDS011;1113;42.018;23.986;2023-03-25T10:40:39;5.10;;;3.93;;
2213;SDS011;1113;42.018;23.986;2023-03-25T10:43:11;8.30;;;4.10;;
2213;SDS011;1113;42.018;23.986;2023-03-25T10:45:41;4.10;;;3.30;;
2213;SDS011;1113;42.018;23.986;2023-03-25T10:48:10;4.20;;;3.07;;
2213;SDS011;1113;42.018;23.986;2023-03-25T10:50:37;4.37;;;3.20;;
2213;SDS011;1113;42.018;23.986;2023-03-25T10:53:05;5.23;;;3.17;;
2213;SDS011;1113;42.018;23.986;2023-03-25T10:55:32;3.80;;;3.17;;
2213;SDS011;1113;42.018;23.986;2023-03-25T10:58:01;5.93;;;3.40;;
2213;SDS011;1113;42.018;23.986;2023-03-25T11:00:28;4.30;;;3.00;;
2213;SDS011;1113;42.018;23.986;2023-03-25T11:02:54;4.57;;;3.20;;
2213;SDS011;1113;42.018;23.986;2023-03-25T11:05:23;4.57;;;3.50;;
2213;SDS011;1113;42.018;23.986;2023-03-25T11:07:52;10.57;;;4.03;;
2213;SDS011;1113;42.018;23.986;2023-03-25T11:10:19;5.60;;;3.27;;
2213;SDS011;1113;42.018;23.986;2023-03-25T11:12:48;3.93;;;3.23;;
2213;SDS011;1113;42.018;23.986;2023-03-25T11:15:17;5.33;;;4.30;;
2213;SDS011;1113;42.018;23.986;2023-03-25T11:17:45;3.80;;;3.07;;
2213;SDS011;1113;42.018;23.986;2023-03-25T11:20:19;3.90;;;3.40;;
2213;SDS011;1113;42.018;23.986;2023-03-25T11:22:49;5.20;;;3.70;;
2213;SDS011;1113;42.018;23.986;2023-03-25T11:25:17;3.80;;;3.07;;
2213;SDS011;1113;42.018;23.986;2023-03-25T11:27:45;4.13;;;3.73;;
2213;SDS011;1113;42.018;23.986;2023-03-25T11:30:14;5.67;;;3.80;;
2213;SDS011;1113;42.018;23.986;2023-03-25T11:32:41;3.40;;;3.07;;
2213;SDS011;1113;42.018;23.986;2023-03-25T11:35:15;5.40;;;3.57;;
2213;SDS011;1113;42.018;23.986;2023-03-25T11:37:43;4.50;;;3.57;;
2213;SDS011;1113;42.018;23.986;2023-03-25T11:40:14;4.17;;;3.37;;
2213;SDS011;1113;42.018;23.986;2023-03-25T11:42:41;4.97;;;3.30;;
2213;SDS011;1113;42.018;23.986;2023-03-25T11:45:17;3.80;;;3.40;;
2213;SDS011;1113;42.018;23.986;2023-03-25T11:47:44;3.50;;;3.00;;
2213;SDS011;1113;42.018;23.986;2023-03-25T11:50:17;4.33;;;3.77;;
2213;SDS011;1113;42.018;23.986;2023-03-25T11:52:44;4.47;;;3.27;;
2213;SDS011;1113;42.018;23.986;2023-03-25T11:55:16;5.10;;;3.80;;
2213;SDS011;1113;42.018;23.986;2023-03-25T11:57:44;5.43;;;3.97;;
2213;SDS011;1113;42.018;23.986;2023-03-25T12:00:18;5.13;;;3.60;;
2213;SDS011;1113;42.018;23.986;2023-03-25T12:02:46;4.73;;;3.90;;
2213;SDS011;1113;42.018;23.986;2023-03-25T12:05:13;4.60;;;3.97;;
2213;SDS011;1113;42.018;23.986;2023-03-25T12:07:41;5.77;;;4.10;;
2213;SDS011;1113;42.018;23.986;2023-03-25T12:10:11;4.40;;;3.47;;
2213;SDS011;1113;42.018;23.986;2023-03-25T12:12:43;6.70;;;4.57;;
2213;SDS011;1113;42.018;23.986;2023-03-25T12:15:19;8.10;;;3.80;;
2213;SDS011;1113;42.018;23.986;2023-03-25T12:17:53;6.10;;;4.43;;
2213;SDS011;1113;42.018;23.986;2023-03-25T12:20:22;4.70;;;4.20;;
2213;SDS011;1113;42.018;23.986;2023-03-25T12:22:54;5.37;;;4.07;;
2213;SDS011;1113;42.018;23.986;2023-03-25T12:25:24;7.37;;;5.20;;
2213;SDS011;1113;42.018;23.986;2023-03-25T12:28:01;11.37;;;4.60;;
2213;SDS011;1113;42.018;23.986;2023-03-25T12:30:35;5.63;;;4.80;;
2213;SDS011;1113;42.018;23.986;2023-03-25T12:33:08;7.00;;;4.10;;
2213;SDS011;1113;42.018;23.986;2023-03-25T12:35:39;8.90;;;4.23;;
2213;SDS011;1113;42.018;23.986;2023-03-25T12:38:13;4.83;;;4.20;;
2213;SDS011;1113;42.018;23.986;2023-03-25T12:40:49;4.57;;;4.13;;
2213;SDS011;1113;42.018;23.986;2023-03-25T12:43:20;5.80;;;4.37;;
2213;SDS011;1113;42.018;23.986;2023-03-25T12:45:53;14.30;;;5.57;;
2213;SDS011;1113;42.018;23.986;2023-03-25T12:48:27;7.03;;;5.43;;
2213;SDS011;1113;42.018;23.986;2023-03-25T12:50:57;7.40;;;5.00;;
2213;SDS011;1113;42.018;23.986;2023-03-25T12:53:32;5.30;;;4.80;;
2213;SDS011;1113;42.018;23.986;2023-03-25T12:56:04;6.70;;;4.03;;
2213;SDS011;1113;42.018;23.986;2023-03-25T12:58:38;5.70;;;4.93;;
2213;SDS011;1113;42.018;23.986;2023-03-25T13:01:08;11.60;;;5.60;;
2213;SDS011;1113;42.018;23.986;2023-03-25T13:03:52;5.77;;;4.53;;
2213;SDS011;1113;42.018;23.986;2023-03-25T13:06:25;6.17;;;5.30;;
2213;SDS011;1113;42.018;23.986;2023-03-25T13:08:55;6.87;;;4.53;;
2213;SDS011;1113;42.018;23.986;2023-03-25T13:11:25;6.17;;;4.60;;
2213;SDS011;1113;42.018;23.986;2023-03-25T13:13:54;7.60;;;5.70;;
2213;SDS011;1113;42.018;23.986;2023-03-25T13:16:22;6.23;;;4.60;;
2213;SDS011;1113;42.018;23.986;2023-03-25T13:18:52;5.67;;;5.00;;
2213;SDS011;1113;42.018;23.986;2023-03-25T13:21:21;6.90;;;5.20;;
2213;SDS011;1113;42.018;23.986;2023-03-25T13:23:51;5.27;;;4.73;;
2213;SDS011;1113;42.018;23.986;2023-03-25T13:26:24;6.07;;;4.87;;
2213;SDS011;1113;42.018;23.986;2023-03-25T13:28:55;5.73;;;5.00;;
2213;SDS011;1113;42.018;23.986;2023-03-25T13:31:25;7.90;;;5.60;;
2213;SDS011;1113;42.018;23.986;2023-03-25T13:33:52;11.03;;;6.40;;
2213;SDS011;1113;42.018;23.986;2023-03-25T13:36:24;5.90;;;5.13;;
2213;SDS011;1113;42.018;23.986;2023-03-25T13:38:52;8.00;;;6.00;;
2213;SDS011;1113;42.018;23.986;2023-03-25T13:41:21;10.03;;;5.37;;
2213;SDS011;1113;42.018;23.986;2023-03-25T13:43:51;7.50;;;5.30;;
2213;SDS011;1113;42.018;23.986;2023-03-25T13:46:23;7.83;;;5.70;;
2213;SDS011;1113;42.018;23.986;2023-03-25T13:48:53;6.33;;;5.50;;
2213;SDS011;1113;42.018;23.986;2023-03-25T13:51:21;6.13;;;4.60;;
2213;SDS011;1113;42.018;23.986;2023-03-25T13:53:50;6.30;;;5.50;;
2213;SDS011;1113;42.018;23.986;2023-03-25T13:56:32;10.10;;;7.20;;
2213;SDS011;1113;42.018;23.986;2023-03-25T13:59:10;12.60;;;8.40;;
2213;SDS011;1113;42.018;23.986;2023-03-25T14:01:46;10.07;;;5.77;;
2213;SDS011;1113;42.018;23.986;2023-03-25T14:04:30;10.30;;;6.30;;
2213;SDS011;1113;42.018;23.986;2023-03-25T14:07:07;10.27;;;7.67;;
2213;SDS011;1113;42.018;23.986;2023-03-25T14:12:30;9.47;;;6.23;;
2213;SDS011;1113;42.018;23.986;2023-03-25T14:14:59;7.77;;;5.73;;
2213;SDS011;1113;42.018;23.986;2023-03-25T14:17:27;6.30;;;4.87;;
2213;SDS011;1113;42.018;23.986;2023-03-25T14:19:56;13.30;;;8.03;;
2213;SDS011;1113;42.018;23.986;2023-03-25T14:22:25;9.40;;;6.53;;
2213;SDS011;1113;42.018;23.986;2023-03-25T14:24:52;7.30;;;5.80;;
2213;SDS011;1113;42.018;23.986;2023-03-25T14:27:21;6.60;;;5.57;;
2213;SDS011;1113;42.018;23.986;2023-03-25T14:29:51;8.33;;;6.93;;
2213;SDS011;1113;42.018;23.986;2023-03-25T14:32:45;13.10;;;6.83;;
2213;SDS011;1113;42.018;23.986;2023-03-25T14:37:57;12.57;;;8.43;;
2213;SDS011;1113;42.018;23.986;2023-03-25T14:40:44;10.50;;;7.40;;
2213;SDS011;1113;42.018;23.986;2023-03-25T14:43:17;9.30;;;6.63;;
2213;SDS011;1113;42.018;23.986;2023-03-25T14:45:52;10.47;;;7.60;;
2213;SDS011;1113;42.018;23.986;2023-03-25T14:48:31;9.20;;;7.30;;
2213;SDS011;1113;42.018;23.986;2023-03-25T14:53:52;6.10;;;5.00;;
2213;SDS011;1113;42.018;23.986;2023-03-25T14:56:21;7.13;;;5.80;;
2213;SDS011;1113;42.018;23.986;2023-03-25T14:58:50;8.40;;;6.43;;
2213;SDS011;1113;42.018;23.986;2023-03-25T15:01:17;10.80;;;8.77;;
2213;SDS011;1113;42.018;23.986;2023-03-25T15:03:46;16.10;;;10.90;;
2213;SDS011;1113;42.018;23.986;2023-03-25T15:06:15;13.97;;;11.27;;
2213;SDS011;1113;42.018;23.986;2023-03-25T15:08:43;11.20;;;9.70;;
2213;SDS011;1113;42.018;23.986;2023-03-25T15:11:24;11.43;;;8.30;;
2213;SDS011;1113;42.018;23.986;2023-03-25T15:13:53;12.50;;;8.17;;